Flight Track Log - Related Links

Times and Time Zones

All times are in EDT time to prevent confusion due to time zone crossing. See the AAL1459 flight status page for this flight to view local times or setup timezone preferences in your user account.

Time Position Orientation Groundspeed Altitude Reporting Facility
EDT Latitude Longitude Course Direction KTS MPH feet Rate Location/Type
Sun 02:16:14 PM 42.3667 -70.9667 300° West 171 197 1,000  Level KA90
Sun 02:17:32 PM 42.3833 -70.8667 77° East 244 281 3,200 2,201 Climbing KA90
Sun 02:18:00 PM 42.5373 -70.8020 340° North  Level FlightAware Approximate
Sun 02:19:00 PM 42.6088 -70.8904 308° West  Level FlightAware Approximate
Sun 02:19:03 PM 42.4361 -70.7692 54° Northeast 257 296 7,200  Level Boston Center
Sun 02:20:00 PM 42.6629 -71.0042 300° West  Level FlightAware Approximate
Sun 02:20:03 PM 42.5072 -70.7897 348° North 209 241 10,400  Level Boston Center
Sun 02:21:00 PM 42.7122 -71.1226 300° West  Level FlightAware Approximate
Sun 02:21:03 PM 42.5606 -70.8842 307° West 218 251 12,400  Level Boston Center
Sun 02:22:03 PM 42.6097 -70.9675 309° West 282 325 14,900 2,800 Climbing Boston Center
Sun 02:23:03 PM 42.6694 -71.0792 306° West 319 367 18,000 2,150 Climbing Boston Center
Sun 02:24:03 PM 42.7225 -71.1683 309° West 335 386 19,200 1,850 Climbing Boston Center
Sun 02:25:03 PM 42.7819 -71.2717 308° West 340 391 21,700 1,850 Climbing Boston Center
Sun 02:26:03 PM 42.7978 -71.3958 280° West 326 375 22,900 1,300 Climbing Boston Center
Sun 02:27:03 PM 42.8114 -71.5286 278° West 338 389 24,300 1,818 Climbing Boston Center
Sun 02:28:15 PM 42.8211 -71.6872 275° West 355 409 26,900 1,909 Climbing Boston Center
Sun 02:29:15 PM 42.8342 -71.8228 278° West 360 414 28,500 1,600 Climbing Boston Center
Sun 02:30:15 PM 42.8475 -71.9586 278° West 366 421 30,100 1,636 Climbing Boston Center
Sun 02:31:27 PM 42.8625 -72.1258 277° West 371 427 32,100 1,591 Climbing Boston Center
Sun 02:32:27 PM 42.8817 -72.2786 280° West 371 427 33,600 1,300 Climbing Boston Center
Sun 02:33:27 PM 42.8922 -72.4175 276° West 371 427 34,700 1,150 Climbing Boston Center
Sun 02:34:27 PM 42.9047 -72.5619 277° West 377 434 35,900 1,100 Climbing Boston Center
Sun 02:35:27 PM 42.9128 -72.7008 275° West 377 434 36,900 800 Climbing Boston Center
Sun 02:36:27 PM 42.9208 -72.8144 276° West 377 434 37,500 550 Climbing Boston Center
Sun 02:37:27 PM 42.9347 -72.9844 276° West 382 440 38,000 250 Climbing Boston Center
Sun 02:38:27 PM 42.9489 -73.0897 280° West 390 449 38,000  Level Boston Center
Sun 02:39:27 PM 42.9622 -73.2600 276° West 390 449 38,000  Level Boston Center
Sun 02:40:27 PM 42.9694 -73.4161 274° West 390 449 38,000 -50 Level Boston Center
Sun 02:41:27 PM 42.9825 -73.5611 277° West 390 449 37,900 -50 Descending Boston Center
Sun 02:42:27 PM 42.9936 -73.7061 276° West 390 449 37,900 50 Level Boston Center
Sun 02:43:27 PM 43.0064 -73.8511 277° West 390 449 38,000 50 Climbing Boston Center
Sun 02:44:27 PM 43.0172 -73.9933 276° West 390 449 38,000  Level Boston Center
Sun 02:45:27 PM 43.0297 -74.1414 277° West 390 449 38,000  Level Boston Center
Sun 02:46:27 PM 43.0378 -74.2836 274° West 390 449 38,000  Level Boston Center
Sun 02:47:27 PM 43.0500 -74.4317 276° West 390 449 38,000  Level Boston Center
Sun 02:48:27 PM 43.0578 -74.5769 274° West 390 449 38,000  Level Boston Center
Sun 02:49:27 PM 43.0675 -74.7222 275° West 385 443 38,000  Level Boston Center
Sun 02:50:27 PM 43.0789 -74.8678 276° West 390 449 38,000  Level Boston Center
Sun 02:51:39 PM 43.0883 -75.0131 275° West 390 449 38,000  Level Boston Center
Sun 02:52:39 PM 43.0972 -75.1728 274° West 390 449 38,000  Level Boston Center
Sun 02:53:39 PM 43.1058 -75.3211 275° West 390 449 38,000  Level Boston Center
Sun 02:54:39 PM 43.1169 -75.4639 276° West 390 449 38,000  Level Boston Center
Sun 02:55:39 PM 43.1253 -75.6094 275° West 390 449 38,000 -50 Level Boston Center
Sun 02:56:39 PM 43.1358 -75.7550 276° West 390 449 37,900  Descending Boston Center
Sun 02:57:39 PM 43.1442 -75.9006 275° West 390 449 38,000 50 Climbing Boston Center
Sun 02:58:39 PM 43.1519 -76.0464 274° West 390 449 38,000  Level Boston Center
Sun 03:01:40 PM 43.1608 -76.4872 272° West 377 434 38,000 -25 Level Cleveland Center
Sun 03:02:40 PM 43.1600 -76.6353 270° West 383 441 37,900  Descending Cleveland Center
Sun 03:03:40 PM 43.1586 -76.7806 269° West 388 447 38,000 50 Climbing Cleveland Center
Sun 03:04:40 PM 43.1592 -76.9286 270° West 388 447 38,000  Level Cleveland Center
Sun 03:05:40 PM 43.1572 -77.0739 269° West 388 447 38,000  Level Cleveland Center
Sun 03:06:40 PM 43.1575 -77.2247 270° West 388 447 38,000  Level Cleveland Center
Sun 03:07:40 PM 43.1556 -77.3731 269° West 388 447 38,000  Level Cleveland Center
Sun 03:08:40 PM 43.1533 -77.5181 269° West 388 447 38,000  Level Cleveland Center
Sun 03:09:40 PM 43.1528 -77.6661 270° West 388 447 38,000  Level Cleveland Center
Sun 03:10:40 PM 43.1503 -77.8086 269° West 388 447 38,000  Level Cleveland Center
Sun 03:11:40 PM 43.1472 -77.9539 268° West 388 447 38,000  Level Cleveland Center
Sun 03:12:40 PM 43.1464 -78.0964 270° West 388 447 38,000  Level Cleveland Center
Sun 03:13:40 PM 43.1450 -78.2414 269° West 388 447 38,000  Level Cleveland Center
Sun 03:14:40 PM 43.1417 -78.3867 268° West 388 447 38,000  Level Cleveland Center
Sun 03:15:40 PM 43.1381 -78.5319 268° West 388 447 38,000  Level Cleveland Center
Sun 03:16:40 PM 43.1325 -78.6942 267° West 388 447 38,000  Level Cleveland Center
Sun 03:17:40 PM 43.1308 -78.8422 269° West 388 447 38,000  Level Cleveland Center
Sun 03:18:17 PM 43.1167 -78.9000 251° West 390 449 38,000  Level Toronto Center
Sun 03:19:17 PM 43.1167 -79.0667 270° West 390 449 38,000  Level Toronto Center
Sun 03:20:17 PM 43.1000 -79.2167 261° West 390 449 38,000  Level Toronto Center
Sun 03:21:17 PM 43.1000 -79.3667 270° West 390 449 38,000  Level Toronto Center
Sun 03:22:17 PM 43.1000 -79.5167 270° West 390 449 38,000  Level Toronto Center
Sun 03:23:17 PM 43.0833 -79.6500 260° West 390 449 38,000  Level Toronto Center
Sun 03:24:17 PM 43.0833 -79.8000 270° West 390 449 38,000  Level Toronto Center
Sun 03:25:17 PM 43.0833 -79.9500 270° West 390 449 38,000  Level Toronto Center
Sun 03:26:17 PM 43.0833 -80.0833 270° West 390 449 38,000  Level Toronto Center
Sun 03:27:17 PM 43.0667 -80.2500 262° West 390 449 38,000  Level Toronto Center
Sun 03:28:17 PM 43.0667 -80.3833 270° West 390 449 38,000  Level Toronto Center
Sun 03:29:17 PM 43.0667 -80.5500 270° West 390 449 38,000  Level Toronto Center
Sun 03:30:17 PM 43.0500 -80.7000 261° West 390 449 38,000  Level Toronto Center
Sun 03:31:17 PM 43.0333 -80.8500 261° West 390 449 38,000  Level Toronto Center
Sun 03:32:17 PM 43.0333 -81.0000 270° West 400 460 38,000  Level Toronto Center
Sun 03:34:17 PM 43.0167 -81.3000 266° West 400 460 38,000  Level Toronto Center
Sun 03:35:17 PM 43.0167 -81.4333 270° West 400 460 38,000  Level Toronto Center
Sun 03:36:17 PM 43.0167 -81.6000 270° West 400 460 38,000  Level Toronto Center
Sun 03:37:17 PM 43.0167 -81.7333 270° West 400 460 38,000  Level Toronto Center
Sun 03:38:17 PM 43.0167 -81.8833 270° West 400 460 38,000  Level Toronto Center
Sun 03:39:17 PM 43.0000 -82.0500 262° West 400 460 38,000  Level Toronto Center
Sun 03:40:17 PM 43.0000 -82.2167 270° West 400 460 38,000  Level Toronto Center
Sun 03:41:17 PM 43.0000 -82.3500 270° West 400 460 38,000  Level Toronto Center
Sun 03:42:17 PM 43.0000 -82.5000 270° West 400 460 38,000  Level Toronto Center
Sun 03:43:17 PM 42.9833 -82.6500 261° West 400 460 38,000  Level Toronto Center
Sun 03:43:40 PM 43.0014 -82.7008 296° West 404 465 38,000  Level Cleveland Center
Sun 03:44:40 PM 42.9964 -82.8542 267° West 404 465 38,000  Level Cleveland Center
Sun 03:45:40 PM 42.9914 -83.0014 267° West 404 465 38,000 -350 Level Cleveland Center
Sun 03:46:40 PM 42.9881 -83.1489 268° West 398 458 37,300 -850 Descending Cleveland Center
Sun 03:47:40 PM 42.9828 -83.2936 267° West 393 452 36,300 -950 Descending Cleveland Center
Sun 03:48:40 PM 42.9769 -83.4436 267° West 398 458 35,400 -950 Descending Cleveland Center
Sun 03:49:40 PM 42.9711 -83.5911 267° West 398 458 34,400 -1,000 Descending Cleveland Center
Sun 03:50:40 PM 42.9653 -83.7356 267° West 392 451 33,400 -950 Descending Cleveland Center
Sun 03:51:40 PM 42.9528 -83.8794 263° West 387 445 32,500 -700 Descending Cleveland Center
Sun 03:52:40 PM 42.9381 -84.0292 262° West 387 445 32,000 -250 Descending Cleveland Center
Sun 03:53:40 PM 42.9233 -84.1758 262° West 387 445 32,000  Level Cleveland Center
Sun 03:55:00 PM 42.9039 -84.3867 263° West 405 466 32,000  Level Chicago Center
Sun 03:56:02 PM 42.8892 -84.5372 262° West 403 464 32,000  Level Chicago Center
Sun 03:57:04 PM 42.8733 -84.6903 262° West 407 468 32,000  Level Chicago Center
Sun 03:58:06 PM 42.8578 -84.8431 262° West 408 470 32,000  Level Chicago Center
Sun 03:59:08 PM 42.8411 -84.9950 262° West 406 467 32,000  Level Chicago Center
Sun 04:00:10 PM 42.8214 -85.1781 262° West 405 466 32,000 -387 Level Chicago Center
Sun 04:01:12 PM 42.8042 -85.3300 261° West 407 468 31,200 -871 Descending Chicago Center
Sun 04:02:14 PM 42.7878 -85.4836 262° West 408 470 30,200 -919 Descending Chicago Center
Sun 04:03:16 PM 42.7611 -85.6364 257° West 412 474 29,300 -1,016 Descending Chicago Center
Sun 04:04:18 PM 42.7339 -85.7906 257° West 415 478 28,100 -1,742 Descending Chicago Center
Sun 04:05:20 PM 42.7072 -85.9375 256° West 404 465 25,700 -2,274 Descending Chicago Center
Sun 04:06:22 PM 42.6817 -86.0789 256° West 390 449 23,400 -2,274 Descending Chicago Center
Sun 04:07:24 PM 42.6564 -86.2164 256° West 378 435 21,000 -1,645 Descending Chicago Center
Sun 04:08:26 PM 42.6253 -86.3775 255° West 366 421 20,000 -1,440 Descending Chicago Center
Sun 04:09:29 PM 42.6011 -86.5081 256° West 357 411 18,000 -1,680 Descending Chicago Center
Sun 04:10:31 PM 42.5761 -86.6394 256° West 359 413 16,500 -1,790 Descending Chicago Center
Sun 04:11:33 PM 42.5494 -86.7708 255° West 361 415 14,300 -2,081 Descending Chicago Center
Sun 04:12:35 PM 42.5153 -86.8922 249° West 351 404 12,200 -1,984 Descending Chicago Center
Sun 04:13:37 PM 42.4839 -87.0072 250° West 334 384 10,200 -1,065 Descending Chicago Center
Sun 04:14:39 PM 42.4472 -87.1381 249° West 313 360 10,000 -242 Descending Chicago Center
Sun 04:15:41 PM 42.4206 -87.2381 250° West 280 322 9,700 -774 Descending Chicago Center
Sun 04:16:43 PM 42.3967 -87.3267 250° West 255 293 8,400 -1,258 Descending Chicago Center
Sun 04:17:45 PM 42.3697 -87.4228 249° West 248 285 7,100 -677 Descending Chicago Center
Sun 04:18:47 PM 42.3428 -87.5061 246° West 248 285 7,000 -48 Descending Chicago Center
Sun 04:19:49 PM 42.2881 -87.5706 221° Southwest 252 290 7,000  Level Chicago Center
Sun 04:20:51 PM 42.2369 -87.6319 222° Southwest 248 285 7,000 -576 Level Chicago Center
Sun 04:21:54 PM 42.1839 -87.6889 219° Southwest 246 283 5,800 -1,210 Descending Chicago Center
Sun 04:22:55 PM 42.1381 -87.7406 220° Southwest 218 251 4,500 -1,279 Descending Chicago Center

Login

Don't have an account? Register now (free) for customized features, flight alerts, and more!